sensor_id;sensor_type;location;lat;lon;timestamp;temperature;humidity
14577;DHT22;7375;46.072;14.470;2023-04-25T00:00:21;22.30;51.90
14577;DHT22;7375;46.072;14.470;2023-04-25T00:02:48;22.30;51.90
14577;DHT22;7375;46.072;14.470;2023-04-25T00:05:15;22.30;51.90
14577;DHT22;7375;46.072;14.470;2023-04-25T00:07:42;22.20;51.90
14577;DHT22;7375;46.072;14.470;2023-04-25T00:10:09;22.30;52.00
14577;DHT22;7375;46.072;14.470;2023-04-25T00:12:37;22.20;52.00
14577;DHT22;7375;46.072;14.470;2023-04-25T00:15:05;22.30;52.00
14577;DHT22;7375;46.072;14.470;2023-04-25T00:17:32;22.20;52.00
14577;DHT22;7375;46.072;14.470;2023-04-25T00:20:00;22.20;52.10
14577;DHT22;7375;46.072;14.470;2023-04-25T00:22:29;22.20;52.10
14577;DHT22;7375;46.072;14.470;2023-04-25T00:24:56;22.20;52.10
14577;DHT22;7375;46.072;14.470;2023-04-25T00:27:25;22.20;52.10
14577;DHT22;7375;46.072;14.470;2023-04-25T00:29:53;22.10;52.10
14577;DHT22;7375;46.072;14.470;2023-04-25T00:32:20;22.10;52.10
14577;DHT22;7375;46.072;14.470;2023-04-25T00:34:47;22.20;52.20
14577;DHT22;7375;46.072;14.470;2023-04-25T00:37:14;22.10;52.10
14577;DHT22;7375;46.072;14.470;2023-04-25T00:39:41;22.10;52.10
14577;DHT22;7375;46.072;14.470;2023-04-25T00:42:07;22.10;52.20
14577;DHT22;7375;46.072;14.470;2023-04-25T00:44:34;22.10;52.20
14577;DHT22;7375;46.072;14.470;2023-04-25T00:47:03;22.10;52.20
14577;DHT22;7375;46.072;14.470;2023-04-25T00:49:30;22.00;52.20
14577;DHT22;7375;46.072;14.470;2023-04-25T00:51:57;22.00;52.20
14577;DHT22;7375;46.072;14.470;2023-04-25T00:54:24;22.00;52.20
14577;DHT22;7375;46.072;14.470;2023-04-25T00:56:51;22.10;52.30
14577;DHT22;7375;46.072;14.470;2023-04-25T00:59:18;22.00;52.20
14577;DHT22;7375;46.072;14.470;2023-04-25T01:01:45;22.00;52.20
14577;DHT22;7375;46.072;14.470;2023-04-25T01:04:14;22.00;52.20
14577;DHT22;7375;46.072;14.470;2023-04-25T01:06:40;22.00;52.30
14577;DHT22;7375;46.072;14.470;2023-04-25T01:09:07;22.00;52.30
14577;DHT22;7375;46.072;14.470;2023-04-25T01:11:34;21.90;52.20
14577;DHT22;7375;46.072;14.470;2023-04-25T01:14:01;22.00;52.30
14577;DHT22;7375;46.072;14.470;2023-04-25T01:16:28;21.90;52.20
14577;DHT22;7375;46.072;14.470;2023-04-25T01:18:55;22.00;52.30
14577;DHT22;7375;46.072;14.470;2023-04-25T01:21:23;21.90;52.30
14577;DHT22;7375;46.072;14.470;2023-04-25T01:23:52;21.90;52.30
14577;DHT22;7375;46.072;14.470;2023-04-25T01:26:20;21.90;52.30
14577;DHT22;7375;46.072;14.470;2023-04-25T01:28:47;21.90;52.30
14577;DHT22;7375;46.072;14.470;2023-04-25T01:31:15;22.00;52.40
14577;DHT22;7375;46.072;14.470;2023-04-25T01:33:42;21.90;52.30
14577;DHT22;7375;46.072;14.470;2023-04-25T01:36:08;21.90;52.30
14577;DHT22;7375;46.072;14.470;2023-04-25T01:38:37;21.90;52.40
14577;DHT22;7375;46.072;14.470;2023-04-25T01:41:04;21.90;52.40
14577;DHT22;7375;46.072;14.470;2023-04-25T01:43:31;21.90;52.40
14577;DHT22;7375;46.072;14.470;2023-04-25T01:45:58;21.90;52.40
14577;DHT22;7375;46.072;14.470;2023-04-25T01:48:25;21.90;52.40
14577;DHT22;7375;46.072;14.470;2023-04-25T01:50:52;21.90;52.40
14577;DHT22;7375;46.072;14.470;2023-04-25T01:53:18;21.80;52.40
14577;DHT22;7375;46.072;14.470;2023-04-25T01:55:46;21.90;52.40
14577;DHT22;7375;46.072;14.470;2023-04-25T01:58:13;21.90;52.50
14577;DHT22;7375;46.072;14.470;2023-04-25T02:00:40;21.90;52.40
14577;DHT22;7375;46.072;14.470;2023-04-25T02:03:07;21.80;52.40
14577;DHT22;7375;46.072;14.470;2023-04-25T02:05:35;21.80;52.40
14577;DHT22;7375;46.072;14.470;2023-04-25T02:08:02;21.80;52.40
14577;DHT22;7375;46.072;14.470;2023-04-25T02:10:29;21.80;52.40
14577;DHT22;7375;46.072;14.470;2023-04-25T02:12:58;21.80;52.40
14577;DHT22;7375;46.072;14.470;2023-04-25T02:15:24;21.80;52.40
14577;DHT22;7375;46.072;14.470;2023-04-25T02:17:51;21.80;52.50
14577;DHT22;7375;46.072;14.470;2023-04-25T02:20:20;21.80;52.50
14577;DHT22;7375;46.072;14.470;2023-04-25T02:22:47;21.80;52.50
14577;DHT22;7375;46.072;14.470;2023-04-25T02:25:14;21.80;52.50
14577;DHT22;7375;46.072;14.470;2023-04-25T02:27:41;21.80;52.50
14577;DHT22;7375;46.072;14.470;2023-04-25T02:30:09;21.80;52.40
14577;DHT22;7375;46.072;14.470;2023-04-25T02:32:36;21.80;52.50
14577;DHT22;7375;46.072;14.470;2023-04-25T02:35:03;21.80;52.50
14577;DHT22;7375;46.072;14.470;2023-04-25T02:37:31;21.80;52.50
14577;DHT22;7375;46.072;14.470;2023-04-25T02:39:58;21.80;52.50
14577;DHT22;7375;46.072;14.470;2023-04-25T02:42:25;21.80;52.50
14577;DHT22;7375;46.072;14.470;2023-04-25T02:44:52;21.80;52.60
14577;DHT22;7375;46.072;14.470;2023-04-25T02:47:20;21.70;52.50
14577;DHT22;7375;46.072;14.470;2023-04-25T02:49:47;21.80;52.60
14577;DHT22;7375;46.072;14.470;2023-04-25T02:52:13;21.80;52.60
14577;DHT22;7375;46.072;14.470;2023-04-25T02:54:40;21.70;52.50
14577;DHT22;7375;46.072;14.470;2023-04-25T02:57:07;21.80;52.60
14577;DHT22;7375;46.072;14.470;2023-04-25T02:59:34;21.70;52.50
14577;DHT22;7375;46.072;14.470;2023-04-25T03:02:01;21.70;52.50
14577;DHT22;7375;46.072;14.470;2023-04-25T03:04:29;21.70;52.50
14577;DHT22;7375;46.072;14.470;2023-04-25T03:06:56;21.70;52.50
14577;DHT22;7375;46.072;14.470;2023-04-25T03:09:23;21.70;52.50
14577;DHT22;7375;46.072;14.470;2023-04-25T03:11:50;21.70;52.50
14577;DHT22;7375;46.072;14.470;2023-04-25T03:14:17;21.70;52.50
14577;DHT22;7375;46.072;14.470;2023-04-25T03:16:44;21.70;52.50
14577;DHT22;7375;46.072;14.470;2023-04-25T03:19:11;21.70;52.60
14577;DHT22;7375;46.072;14.470;2023-04-25T03:21:39;21.70;52.60
14577;DHT22;7375;46.072;14.470;2023-04-25T03:24:06;21.70;52.60
14577;DHT22;7375;46.072;14.470;2023-04-25T03:26:32;21.70;52.60
14577;DHT22;7375;46.072;14.470;2023-04-25T03:28:59;21.70;52.60
14577;DHT22;7375;46.072;14.470;2023-04-25T03:31:26;21.70;52.60
14577;DHT22;7375;46.072;14.470;2023-04-25T03:33:53;21.70;52.60
14577;DHT22;7375;46.072;14.470;2023-04-25T03:36:20;21.70;52.60
14577;DHT22;7375;46.072;14.470;2023-04-25T03:38:48;21.70;52.60
14577;DHT22;7375;46.072;14.470;2023-04-25T03:41:15;21.70;52.60
14577;DHT22;7375;46.072;14.470;2023-04-25T03:43:42;21.70;52.60
14577;DHT22;7375;46.072;14.470;2023-04-25T03:46:09;21.70;52.60
14577;DHT22;7375;46.072;14.470;2023-04-25T03:48:35;21.70;52.60
14577;DHT22;7375;46.072;14.470;2023-04-25T03:51:02;21.70;52.60
14577;DHT22;7375;46.072;14.470;2023-04-25T03:53:29;21.70;52.60
14577;DHT22;7375;46.072;14.470;2023-04-25T03:55:57;21.70;52.60
14577;DHT22;7375;46.072;14.470;2023-04-25T03:58:24;21.70;52.70
14577;DHT22;7375;46.072;14.470;2023-04-25T04:00:51;21.70;52.60
14577;DHT22;7375;46.072;14.470;2023-04-25T04:03:18;21.70;52.60
14577;DHT22;7375;46.072;14.470;2023-04-25T04:05:45;21.70;52.60
14577;DHT22;7375;46.072;14.470;2023-04-25T04:08:12;21.70;52.60
14577;DHT22;7375;46.072;14.470;2023-04-25T04:10:39;21.70;52.60
14577;DHT22;7375;46.072;14.470;2023-04-25T04:13:07;21.70;52.60
14577;DHT22;7375;46.072;14.470;2023-04-25T04:15:34;21.70;52.60
14577;DHT22;7375;46.072;14.470;2023-04-25T04:18:01;21.70;52.60
14577;DHT22;7375;46.072;14.470;2023-04-25T04:20:28;21.70;52.60
14577;DHT22;7375;46.072;14.470;2023-04-25T04:22:55;21.70;52.50
14577;DHT22;7375;46.072;14.470;2023-04-25T04:25:22;21.70;52.50
14577;DHT22;7375;46.072;14.470;2023-04-25T04:27:49;21.70;52.50
14577;DHT22;7375;46.072;14.470;2023-04-25T04:30:21;21.70;52.50
14577;DHT22;7375;46.072;14.470;2023-04-25T04:32:49;21.70;52.50
14577;DHT22;7375;46.072;14.470;2023-04-25T04:35:16;21.70;52.40
14577;DHT22;7375;46.072;14.470;2023-04-25T04:37:43;21.80;52.50
14577;DHT22;7375;46.072;14.470;2023-04-25T04:40:11;21.80;52.40
14577;DHT22;7375;46.072;14.470;2023-04-25T04:42:40;21.80;52.40
14577;DHT22;7375;46.072;14.470;2023-04-25T04:45:07;21.80;52.90
14577;DHT22;7375;46.072;14.470;2023-04-25T04:47:36;21.80;52.20
14577;DHT22;7375;46.072;14.470;2023-04-25T04:50:05;21.80;52.20
14577;DHT22;7375;46.072;14.470;2023-04-25T04:52:32;21.80;52.20
14577;DHT22;7375;46.072;14.470;2023-04-25T04:54:59;21.80;52.10
14577;DHT22;7375;46.072;14.470;2023-04-25T04:57:26;21.80;52.00
14577;DHT22;7375;46.072;14.470;2023-04-25T04:59:53;21.80;52.00
14577;DHT22;7375;46.072;14.470;2023-04-25T05:02:20;21.80;51.90
14577;DHT22;7375;46.072;14.470;2023-04-25T05:04:48;21.90;51.90
14577;DHT22;7375;46.072;14.470;2023-04-25T05:07:15;21.90;51.80
14577;DHT22;7375;46.072;14.470;2023-04-25T05:09:42;21.90;51.80
14577;DHT22;7375;46.072;14.470;2023-04-25T05:12:09;21.90;51.70
14577;DHT22;7375;46.072;14.470;2023-04-25T05:14:36;22.00;51.80
14577;DHT22;7375;46.072;14.470;2023-04-25T05:17:03;22.00;51.70
14577;DHT22;7375;46.072;14.470;2023-04-25T05:19:33;22.10;51.70
14577;DHT22;7375;46.072;14.470;2023-04-25T05:22:02;22.00;51.60
14577;DHT22;7375;46.072;14.470;2023-04-25T05:24:29;22.10;51.60
14577;DHT22;7375;46.072;14.470;2023-04-25T05:26:56;22.10;51.50
14577;DHT22;7375;46.072;14.470;2023-04-25T05:29:23;22.10;51.50
14577;DHT22;7375;46.072;14.470;2023-04-25T05:31:57;22.10;51.40
14577;DHT22;7375;46.072;14.470;2023-04-25T05:34:24;22.10;51.40
14577;DHT22;7375;46.072;14.470;2023-04-25T05:36:51;22.20;51.30
14577;DHT22;7375;46.072;14.470;2023-04-25T05:39:19;22.20;51.30
14577;DHT22;7375;46.072;14.470;2023-04-25T05:41:46;22.20;51.30
14577;DHT22;7375;46.072;14.470;2023-04-25T05:44:13;22.20;51.20
14577;DHT22;7375;46.072;14.470;2023-04-25T05:46:41;22.20;51.20
14577;DHT22;7375;46.072;14.470;2023-04-25T05:49:08;22.20;51.10
14577;DHT22;7375;46.072;14.470;2023-04-25T05:51:34;22.30;51.20
14577;DHT22;7375;46.072;14.470;2023-04-25T05:54:01;22.30;51.20
14577;DHT22;7375;46.072;14.470;2023-04-25T05:56:29;22.30;51.10
14577;DHT22;7375;46.072;14.470;2023-04-25T05:58:56;22.30;51.10
14577;DHT22;7375;46.072;14.470;2023-04-25T06:01:23;22.30;51.10
14577;DHT22;7375;46.072;14.470;2023-04-25T06:03:50;22.40;51.10
14577;DHT22;7375;46.072;14.470;2023-04-25T06:06:18;22.40;51.00
14577;DHT22;7375;46.072;14.470;2023-04-25T06:08:44;22.40;51.00
14577;DHT22;7375;46.072;14.470;2023-04-25T06:11:11;22.40;51.00
14577;DHT22;7375;46.072;14.470;2023-04-25T06:13:39;22.40;51.00
14577;DHT22;7375;46.072;14.470;2023-04-25T06:16:06;22.40;51.00
14577;DHT22;7375;46.072;14.470;2023-04-25T06:18:33;22.40;51.00
14577;DHT22;7375;46.072;14.470;2023-04-25T06:21:00;22.40;50.90
14577;DHT22;7375;46.072;14.470;2023-04-25T06:23:27;22.50;51.00
14577;DHT22;7375;46.072;14.470;2023-04-25T06:25:53;22.40;50.90
14577;DHT22;7375;46.072;14.470;2023-04-25T06:28:20;22.50;50.90
14577;DHT22;7375;46.072;14.470;2023-04-25T06:30:50;22.50;50.90
14577;DHT22;7375;46.072;14.470;2023-04-25T06:33:16;22.50;50.90
14577;DHT22;7375;46.072;14.470;2023-04-25T06:35:43;22.50;50.90
14577;DHT22;7375;46.072;14.470;2023-04-25T06:38:10;22.50;50.80
14577;DHT22;7375;46.072;14.470;2023-04-25T06:40:37;22.50;50.80
14577;DHT22;7375;46.072;14.470;2023-04-25T06:43:04;22.50;50.70
14577;DHT22;7375;46.072;14.470;2023-04-25T06:45:31;22.60;50.80
14577;DHT22;7375;46.072;14.470;2023-04-25T06:47:59;22.60;50.80
14577;DHT22;7375;46.072;14.470;2023-04-25T06:50:26;22.60;50.70
14577;DHT22;7375;46.072;14.470;2023-04-25T06:52:53;22.60;50.60
14577;DHT22;7375;46.072;14.470;2023-04-25T06:55:19;22.60;50.60
14577;DHT22;7375;46.072;14.470;2023-04-25T06:57:46;22.60;50.60
14577;DHT22;7375;46.072;14.470;2023-04-25T07:00:13;22.60;50.60
14577;DHT22;7375;46.072;14.470;2023-04-25T07:02:40;22.70;50.70
14577;DHT22;7375;46.072;14.470;2023-04-25T07:05:10;22.70;50.60
14577;DHT22;7375;46.072;14.470;2023-04-25T07:07:37;22.70;51.10
14577;DHT22;7375;46.072;14.470;2023-04-25T07:10:04;22.70;50.50
14577;DHT22;7375;46.072;14.470;2023-04-25T07:12:31;22.70;50.50
14577;DHT22;7375;46.072;14.470;2023-04-25T07:14:58;22.70;50.50
14577;DHT22;7375;46.072;14.470;2023-04-25T07:17:31;22.70;50.50
14577;DHT22;7375;46.072;14.470;2023-04-25T07:19:58;22.70;50.40
14577;DHT22;7375;46.072;14.470;2023-04-25T07:22:26;22.80;50.50
14577;DHT22;7375;46.072;14.470;2023-04-25T07:24:53;22.80;50.50
14577;DHT22;7375;46.072;14.470;2023-04-25T07:27:19;22.80;50.40
14577;DHT22;7375;46.072;14.470;2023-04-25T07:29:46;22.80;50.40
14577;DHT22;7375;46.072;14.470;2023-04-25T07:32:13;22.80;50.40
14577;DHT22;7375;46.072;14.470;2023-04-25T07:34:40;22.80;50.40
14577;DHT22;7375;46.072;14.470;2023-04-25T07:37:07;22.80;50.40
14577;DHT22;7375;46.072;14.470;2023-04-25T07:39:35;22.80;50.40
14577;DHT22;7375;46.072;14.470;2023-04-25T07:42:02;22.80;51.00
14577;DHT22;7375;46.072;14.470;2023-04-25T07:44:29;22.80;50.30
14577;DHT22;7375;46.072;14.470;2023-04-25T07:46:56;22.90;50.30
14577;DHT22;7375;46.072;14.470;2023-04-25T07:49:23;22.90;50.40
14577;DHT22;7375;46.072;14.470;2023-04-25T07:51:50;22.90;50.30
14577;DHT22;7375;46.072;14.470;2023-04-25T07:54:17;22.90;50.30
14577;DHT22;7375;46.072;14.470;2023-04-25T07:56:45;22.90;50.20
14577;DHT22;7375;46.072;14.470;2023-04-25T07:59:12;22.90;50.30
14577;DHT22;7375;46.072;14.470;2023-04-25T08:01:38;22.90;50.20
14577;DHT22;7375;46.072;14.470;2023-04-25T08:04:05;22.90;50.20
14577;DHT22;7375;46.072;14.470;2023-04-25T08:06:32;22.90;50.20
14577;DHT22;7375;46.072;14.470;2023-04-25T08:08:59;22.90;50.20
14577;DHT22;7375;46.072;14.470;2023-04-25T08:11:26;22.90;50.20
14577;DHT22;7375;46.072;14.470;2023-04-25T08:13:54;22.90;50.10
14577;DHT22;7375;46.072;14.470;2023-04-25T08:16:21;23.00;50.20
14577;DHT22;7375;46.072;14.470;2023-04-25T08:18:47;23.00;50.20
14577;DHT22;7375;46.072;14.470;2023-04-25T08:21:15;23.00;50.30
14577;DHT22;7375;46.072;14.470;2023-04-25T08:23:42;23.00;50.20
14577;DHT22;7375;46.072;14.470;2023-04-25T08:26:08;23.00;50.30
14577;DHT22;7375;46.072;14.470;2023-04-25T08:28:35;23.00;50.20
14577;DHT22;7375;46.072;14.470;2023-04-25T08:31:03;23.00;50.30
14577;DHT22;7375;46.072;14.470;2023-04-25T08:33:30;23.00;50.30
14577;DHT22;7375;46.072;14.470;2023-04-25T08:35:58;23.00;50.30
14577;DHT22;7375;46.072;14.470;2023-04-25T08:38:24;23.00;50.80
14577;DHT22;7375;46.072;14.470;2023-04-25T08:40:51;23.00;50.20
14577;DHT22;7375;46.072;14.470;2023-04-25T08:43:19;23.10;50.40
14577;DHT22;7375;46.072;14.470;2023-04-25T08:45:46;23.10;50.30
14577;DHT22;7375;46.072;14.470;2023-04-25T08:48:15;23.10;50.30
14577;DHT22;7375;46.072;14.470;2023-04-25T08:50:43;23.10;50.20
14577;DHT22;7375;46.072;14.470;2023-04-25T08:53:12;23.10;50.20
14577;DHT22;7375;46.072;14.470;2023-04-25T08:55:41;23.10;50.10
14577;DHT22;7375;46.072;14.470;2023-04-25T08:58:09;23.20;50.20
14577;DHT22;7375;46.072;14.470;2023-04-25T09:00:37;23.20;50.10
14577;DHT22;7375;46.072;14.470;2023-04-25T09:03:03;23.20;50.10
14577;DHT22;7375;46.072;14.470;2023-04-25T09:05:32;23.20;50.10
14577;DHT22;7375;46.072;14.470;2023-04-25T09:07:59;23.20;50.10
14577;DHT22;7375;46.072;14.470;2023-04-25T09:10:26;23.20;50.00
14577;DHT22;7375;46.072;14.470;2023-04-25T09:13:03;23.20;50.00
14577;DHT22;7375;46.072;14.470;2023-04-25T09:15:31;23.20;50.00
14577;DHT22;7375;46.072;14.470;2023-04-25T09:17:58;23.20;50.00
14577;DHT22;7375;46.072;14.470;2023-04-25T09:20:25;23.20;50.00
14577;DHT22;7375;46.072;14.470;2023-04-25T09:23:02;23.20;50.00
14577;DHT22;7375;46.072;14.470;2023-04-25T09:25:33;23.20;50.00
14577;DHT22;7375;46.072;14.470;2023-04-25T09:28:03;23.30;50.00
14577;DHT22;7375;46.072;14.470;2023-04-25T09:30:30;23.30;50.00
14577;DHT22;7375;46.072;14.470;2023-04-25T09:32:58;23.30;50.00
14577;DHT22;7375;46.072;14.470;2023-04-25T09:35:32;23.30;50.00
14577;DHT22;7375;46.072;14.470;2023-04-25T09:38:02;23.30;50.00
14577;DHT22;7375;46.072;14.470;2023-04-25T09:40:33;23.30;50.00
14577;DHT22;7375;46.072;14.470;2023-04-25T09:43:00;23.30;49.90
14577;DHT22;7375;46.072;14.470;2023-04-25T09:45:29;23.30;50.00
14577;DHT22;7375;46.072;14.470;2023-04-25T09:47:56;23.30;49.90
14577;DHT22;7375;46.072;14.470;2023-04-25T09:50:24;23.30;49.90
14577;DHT22;7375;46.072;14.470;2023-04-25T09:53:03;23.30;49.90
14577;DHT22;7375;46.072;14.470;2023-04-25T09:55:31;23.30;49.90
14577;DHT22;7375;46.072;14.470;2023-04-25T09:57:58;23.30;49.80
14577;DHT22;7375;46.072;14.470;2023-04-25T10:00:28;23.30;49.80
14577;DHT22;7375;46.072;14.470;2023-04-25T10:02:55;23.30;49.90
14577;DHT22;7375;46.072;14.470;2023-04-25T10:05:23;23.30;49.80
14577;DHT22;7375;46.072;14.470;2023-04-25T10:07:51;23.30;49.80
14577;DHT22;7375;46.072;14.470;2023-04-25T10:10:20;23.40;49.80
14577;DHT22;7375;46.072;14.470;2023-04-25T10:12:51;23.40;49.80
14577;DHT22;7375;46.072;14.470;2023-04-25T10:15:18;23.40;49.80
14577;DHT22;7375;46.072;14.470;2023-04-25T10:17:45;23.40;49.80
14577;DHT22;7375;46.072;14.470;2023-04-25T10:20:12;23.40;49.80
14577;DHT22;7375;46.072;14.470;2023-04-25T10:22:41;23.40;49.80
14577;DHT22;7375;46.072;14.470;2023-04-25T10:25:08;23.40;49.70
14577;DHT22;7375;46.072;14.470;2023-04-25T10:27:36;23.40;49.70
14577;DHT22;7375;46.072;14.470;2023-04-25T10:30:04;23.40;49.70
14577;DHT22;7375;46.072;14.470;2023-04-25T10:32:31;23.40;49.70
14577;DHT22;7375;46.072;14.470;2023-04-25T10:35:09;23.40;49.70
14577;DHT22;7375;46.072;14.470;2023-04-25T10:37:36;23.40;49.70
14577;DHT22;7375;46.072;14.470;2023-04-25T10:40:07;23.40;49.70
14577;DHT22;7375;46.072;14.470;2023-04-25T10:42:35;23.40;49.70
14577;DHT22;7375;46.072;14.470;2023-04-25T10:45:04;23.40;49.70
14577;DHT22;7375;46.072;14.470;2023-04-25T10:47:35;23.40;49.70
14577;DHT22;7375;46.072;14.470;2023-04-25T10:50:08;23.40;49.70
14577;DHT22;7375;46.072;14.470;2023-04-25T10:52:36;23.40;49.70
14577;DHT22;7375;46.072;14.470;2023-04-25T10:55:05;23.40;49.70
14577;DHT22;7375;46.072;14.470;2023-04-25T10:57:36;23.40;49.70
14577;DHT22;7375;46.072;14.470;2023-04-25T11:00:08;23.40;49.60
14577;DHT22;7375;46.072;14.470;2023-04-25T11:02:37;23.40;49.70
14577;DHT22;7375;46.072;14.470;2023-04-25T11:05:04;23.40;49.60
14577;DHT22;7375;46.072;14.470;2023-04-25T11:07:33;23.40;49.70
14577;DHT22;7375;46.072;14.470;2023-04-25T11:10:02;23.40;49.60
14577;DHT22;7375;46.072;14.470;2023-04-25T11:12:30;23.40;49.60
14577;DHT22;7375;46.072;14.470;2023-04-25T11:15:01;23.40;49.60
14577;DHT22;7375;46.072;14.470;2023-04-25T11:17:29;23.40;49.60
14577;DHT22;7375;46.072;14.470;2023-04-25T11:19:56;23.40;49.60
14577;DHT22;7375;46.072;14.470;2023-04-25T11:22:23;23.40;49.60
14577;DHT22;7375;46.072;14.470;2023-04-25T11:24:50;23.40;49.60
14577;DHT22;7375;46.072;14.470;2023-04-25T11:27:17;23.40;49.60
14577;DHT22;7375;46.072;14.470;2023-04-25T11:29:44;23.40;49.60
14577;DHT22;7375;46.072;14.470;2023-04-25T11:32:14;23.40;49.60
14577;DHT22;7375;46.072;14.470;2023-04-25T11:34:44;23.40;49.50
14577;DHT22;7375;46.072;14.470;2023-04-25T11:37:11;23.40;49.60
14577;DHT22;7375;46.072;14.470;2023-04-25T11:39:42;23.40;49.50
14577;DHT22;7375;46.072;14.470;2023-04-25T11:42:09;23.40;49.50
14577;DHT22;7375;46.072;14.470;2023-04-25T11:44:37;23.40;49.50
14577;DHT22;7375;46.072;14.470;2023-04-25T11:47:04;23.40;49.60
14577;DHT22;7375;46.072;14.470;2023-04-25T11:49:31;23.40;49.50
14577;DHT22;7375;46.072;14.470;2023-04-25T11:51:59;23.40;49.50
14577;DHT22;7375;46.072;14.470;2023-04-25T11:54:26;23.40;49.50
14577;DHT22;7375;46.072;14.470;2023-04-25T11:56:52;23.40;49.50
14577;DHT22;7375;46.072;14.470;2023-04-25T11:59:22;23.40;49.50
14577;DHT22;7375;46.072;14.470;2023-04-25T12:01:49;23.40;50.10
14577;DHT22;7375;46.072;14.470;2023-04-25T12:04:17;23.40;49.50
14577;DHT22;7375;46.072;14.470;2023-04-25T12:06:44;23.40;49.50
14577;DHT22;7375;46.072;14.470;2023-04-25T12:09:15;23.40;49.50
14577;DHT22;7375;46.072;14.470;2023-04-25T12:11:43;23.40;49.50
14577;DHT22;7375;46.072;14.470;2023-04-25T12:14:11;23.40;49.40
14577;DHT22;7375;46.072;14.470;2023-04-25T12:16:41;23.40;49.50
14577;DHT22;7375;46.072;14.470;2023-04-25T12:19:08;23.40;49.50
14577;DHT22;7375;46.072;14.470;2023-04-25T12:21:35;23.40;49.40
14577;DHT22;7375;46.072;14.470;2023-04-25T12:24:12;23.40;49.40
14577;DHT22;7375;46.072;14.470;2023-04-25T12:26:50;23.40;49.40
14577;DHT22;7375;46.072;14.470;2023-04-25T12:29:19;23.40;49.40
14577;DHT22;7375;46.072;14.470;2023-04-25T12:31:46;23.40;49.40
14577;DHT22;7375;46.072;14.470;2023-04-25T12:34:13;23.40;49.40
14577;DHT22;7375;46.072;14.470;2023-04-25T12:36:39;23.50;49.40
14577;DHT22;7375;46.072;14.470;2023-04-25T12:39:15;23.40;49.40
14577;DHT22;7375;46.072;14.470;2023-04-25T12:41:43;23.40;49.40
14577;DHT22;7375;46.072;14.470;2023-04-25T12:44:12;23.40;49.30
14577;DHT22;7375;46.072;14.470;2023-04-25T12:46:39;23.40;49.30
14577;DHT22;7375;46.072;14.470;2023-04-25T12:49:06;23.40;49.40
14577;DHT22;7375;46.072;14.470;2023-04-25T12:51:33;23.50;49.40
14577;DHT22;7375;46.072;14.470;2023-04-25T12:54:00;23.40;49.30
14577;DHT22;7375;46.072;14.470;2023-04-25T12:56:27;23.40;49.30
14577;DHT22;7375;46.072;14.470;2023-04-25T12:58:54;23.40;49.40
14577;DHT22;7375;46.072;14.470;2023-04-25T13:01:22;23.40;49.30
14577;DHT22;7375;46.072;14.470;2023-04-25T13:03:50;23.50;49.30
14577;DHT22;7375;46.072;14.470;2023-04-25T13:06:17;23.50;49.40
14577;DHT22;7375;46.072;14.470;2023-04-25T13:08:44;23.50;49.40
14577;DHT22;7375;46.072;14.470;2023-04-25T13:11:11;23.40;49.30
14577;DHT22;7375;46.072;14.470;2023-04-25T13:13:40;23.40;49.20
14577;DHT22;7375;46.072;14.470;2023-04-25T13:16:07;23.40;49.30
14577;DHT22;7375;46.072;14.470;2023-04-25T13:18:36;23.40;49.30
14577;DHT22;7375;46.072;14.470;2023-04-25T13:21:02;23.40;49.30
14577;DHT22;7375;46.072;14.470;2023-04-25T13:23:30;23.40;49.30
14577;DHT22;7375;46.072;14.470;2023-04-25T13:25:57;23.40;49.30
14577;DHT22;7375;46.072;14.470;2023-04-25T13:28:24;23.40;49.20
14577;DHT22;7375;46.072;14.470;2023-04-25T13:30:51;23.40;49.30
14577;DHT22;7375;46.072;14.470;2023-04-25T13:33:18;23.40;49.20
14577;DHT22;7375;46.072;14.470;2023-04-25T13:35:56;23.40;49.20
14577;DHT22;7375;46.072;14.470;2023-04-25T13:38:23;23.40;49.20
14577;DHT22;7375;46.072;14.470;2023-04-25T13:40:50;23.40;49.30
14577;DHT22;7375;46.072;14.470;2023-04-25T13:43:18;23.40;49.20
14577;DHT22;7375;46.072;14.470;2023-04-25T13:45:45;23.40;49.30
14577;DHT22;7375;46.072;14.470;2023-04-25T13:48:12;23.40;49.30
14577;DHT22;7375;46.072;14.470;2023-04-25T13:50:39;23.40;49.20
14577;DHT22;7375;46.072;14.470;2023-04-25T13:53:07;23.40;49.30
14577;DHT22;7375;46.072;14.470;2023-04-25T13:55:34;23.40;49.20
14577;DHT22;7375;46.072;14.470;2023-04-25T13:58:02;23.40;49.30
14577;DHT22;7375;46.072;14.470;2023-04-25T14:00:33;23.40;49.20
14577;DHT22;7375;46.072;14.470;2023-04-25T14:03:00;23.40;49.30
14577;DHT22;7375;46.072;14.470;2023-04-25T14:05:30;23.40;49.20
14577;DHT22;7375;46.072;14.470;2023-04-25T14:07:57;23.40;49.20
14577;DHT22;7375;46.072;14.470;2023-04-25T14:10:25;23.40;49.10
14577;DHT22;7375;46.072;14.470;2023-04-25T14:12:51;23.40;49.20
14577;DHT22;7375;46.072;14.470;2023-04-25T14:15:18;23.40;49.20
14577;DHT22;7375;46.072;14.470;2023-04-25T14:17:45;23.40;49.20
14577;DHT22;7375;46.072;14.470;2023-04-25T14:20:13;23.40;49.20
14577;DHT22;7375;46.072;14.470;2023-04-25T14:22:40;23.40;49.20
14577;DHT22;7375;46.072;14.470;2023-04-25T14:25:09;23.40;49.20
14577;DHT22;7375;46.072;14.470;2023-04-25T14:27:37;23.40;49.10
14577;DHT22;7375;46.072;14.470;2023-04-25T14:30:04;23.40;49.20
14577;DHT22;7375;46.072;14.470;2023-04-25T14:32:32;23.40;49.10
14577;DHT22;7375;46.072;14.470;2023-04-25T14:34:59;23.40;49.10
14577;DHT22;7375;46.072;14.470;2023-04-25T14:37:25;23.40;49.10
14577;DHT22;7375;46.072;14.470;2023-04-25T14:39:52;23.40;49.10
14577;DHT22;7375;46.072;14.470;2023-04-25T14:42:19;23.40;49.10
14577;DHT22;7375;46.072;14.470;2023-04-25T14:44:47;23.40;49.10
14577;DHT22;7375;46.072;14.470;2023-04-25T14:47:15;23.40;49.10
14577;DHT22;7375;46.072;14.470;2023-04-25T14:49:42;23.40;49.20
14577;DHT22;7375;46.072;14.470;2023-04-25T14:52:09;23.40;49.10
14577;DHT22;7375;46.072;14.470;2023-04-25T14:54:35;23.40;49.10
14577;DHT22;7375;46.072;14.470;2023-04-25T14:57:02;23.40;49.20
14577;DHT22;7375;46.072;14.470;2023-04-25T14:59:29;23.40;49.10
14577;DHT22;7375;46.072;14.470;2023-04-25T15:01:57;23.40;49.10
14577;DHT22;7375;46.072;14.470;2023-04-25T15:04:24;23.40;49.10
14577;DHT22;7375;46.072;14.470;2023-04-25T15:06:51;23.40;49.10
14577;DHT22;7375;46.072;14.470;2023-04-25T15:09:18;23.40;49.10
14577;DHT22;7375;46.072;14.470;2023-04-25T15:11:45;23.40;49.00
14577;DHT22;7375;46.072;14.470;2023-04-25T15:14:12;23.40;49.10
14577;DHT22;7375;46.072;14.470;2023-04-25T15:16:38;23.40;49.10
14577;DHT22;7375;46.072;14.470;2023-04-25T15:19:07;23.40;49.10
14577;DHT22;7375;46.072;14.470;2023-04-25T15:21:34;23.40;49.00
14577;DHT22;7375;46.072;14.470;2023-04-25T15:24:00;23.40;49.10
14577;DHT22;7375;46.072;14.470;2023-04-25T15:26:27;23.40;49.00
14577;DHT22;7375;46.072;14.470;2023-04-25T15:28:54;23.40;49.00
14577;DHT22;7375;46.072;14.470;2023-04-25T15:31:21;23.40;49.00